Barro Alto, Brazil
Current Conditions -  °F | °C
As of 4:00 PM on Friday 28 Nov 2014 (Local Time) from SBPL Reporting Station
Scattered Clouds Scattered Clouds  
Wind Chill: 97°   Ceiling: Unl
Heat Index: 99°   Visibility: 6mi
Dew Point: 64°   Wind: 6mph
Humidity: 34%   Direction: 150°SSE
Pressure: 29.85"   Gusts: NA
Location:  11.76°S, 41.91°W
Report Text: SBPL 281900Z 15005KT 9999 FEW020 SCT070 36/18 Q1011
Loading
Personal Weather Stations






























Interactive Weather Map New forecast layout! Learn more

10-Day Weather Forecast

Advertisements
Track Severe Weather on mobile